Impacts METAR Board
IDs:

KORD - Chicago/O'Hare Intl, IL, US

Updated at: 1300 UTC 21 May 2018
Potential Impact None Slight Moderate High
Time 21/01Z 21/02Z 21/03Z 21/04Z 21/05Z 21/06Z 21/07Z 21/08Z 21/09Z 21/10Z 21/11Z 21/12Z 21/13Z
Temp48 48 48 49 49 49 49 49 50 50 50 50 51
Dewpt41 41 42 42 42 42 42 43 43 44 45 48 49
Altim30.18 30.18 30.19 30.19 30.17 30.17 30.15 30.14 30.13 30.13 30.12 30.16 30.12
VIS10 10 10 10 10 10 10 10 10 10 10 2 6
CIG19 20 21 90 25 8 8 8 7 6 18 6 50
CoverOVCOVCOVCOVCOVCOVCOVCOVCOVCOVCOVCOVCOVC
FltCatMVFRMVFRMVFRVFRMVFRIFRIFRIFRIFRIFRMVFRIFRVFR
WX----------------------+TSRA BRRA BR
WDir30201030505040203040403080
WSpd6 5 7 6 7 6 7 8 7 8 8 3 3
WGst-- -- -- -- -- -- -- -- -- -- -- -- --
Raw hourly METARs
KORD 210051Z 03006KT 10SM OVC019 09/05 A3018 RMK AO2 SLP224 T00890050 $
KORD 210151Z 02005KT 10SM OVC020 09/05 A3018 RMK AO2 SLP223 T00890050 $
KORD 210251Z 01007KT 10SM OVC021 09/06 A3019 RMK AO2 SLP225 T00890056 51014 $
KORD 210403Z 03006KT 10SM SCT027 BKN090 OVC250 09/06 A3019 RMK AO2 T00940056 $
KORD 210504Z 05007KT 10SM BKN025 OVC075 09/06 A3017 RMK AO2 T00940056 $
KORD 210551Z 05006KT 10SM BKN008 OVC021 09/06 A3017 RMK AO2 SLP217 T00940056 10100 20089 401280067 58007 $
KORD 210651Z 04007KT 10SM OVC008 09/06 A3015 RMK AO2 SLP212 T00940056 $
KORD 210751Z 02008KT 10SM OVC008 09/06 A3014 RMK AO2 SLP207 T00940061 $
KORD 210851Z 03007KT 10SM OVC007 10/06 A3013 RMK AO2 SLP206 T01000061 56010 $
KORD 210951Z 04008KT 10SM OVC006 10/07 A3013 RMK AO2 SLP204 T01000067 $
KORD 211051Z 04008KT 10SM FEW006 OVC018 10/07 A3012 RMK AO2 SLP200 T01000072 $
KORD 211204Z 03003KT 2SM R10L/5500VP6000FT +TSRA BR BKN006 OVC027CB 10/09 A3016 RMK AO2 LTG DSNT SE TSB04 OCNL LTGICCG VC S-W TS S-W MOV NE P0008 T01000089 $
KORD 211251Z 08003KT 6SM RA BR FEW027 BKN050 OVC070 11/09 A3012 RMK AO2 SLP200 VIS N-NE 2 TSB04E30 P0041 T01060094 $



Page loaded:  13:14 UTC  |   06:14 AM Pacific  |   07:14 AM Mountain  |   08:14 AM Central  |   09:14 AM Eastern

 

ADVISORIES

FORECASTS

FORECASTS

OBSERVATIONS

USER TOOLS

ABOUT US